sensor_id;sensor_type;location;lat;lon;timestamp;P1;durP1;ratioP1;P2;durP2;ratioP2
77984;SDS011;67177;47.240;-1.546;2023-10-19T00:01:07;17.27;;;3.13;;
77984;SDS011;67177;47.240;-1.546;2023-10-19T00:03:34;10.93;;;1.85;;
77984;SDS011;67177;47.240;-1.546;2023-10-19T00:06:01;16.45;;;2.60;;
77984;SDS011;67177;47.240;-1.546;2023-10-19T00:08:26;18.77;;;2.53;;
77984;SDS011;67177;47.240;-1.546;2023-10-19T00:11:01;24.92;;;3.17;;
77984;SDS011;67177;47.240;-1.546;2023-10-19T00:13:36;15.68;;;2.72;;
77984;SDS011;67177;47.240;-1.546;2023-10-19T00:16:06;22.00;;;3.25;;
77984;SDS011;67177;47.240;-1.546;2023-10-19T00:18:42;17.52;;;3.00;;
77984;SDS011;67177;47.240;-1.546;2023-10-19T00:21:18;15.67;;;2.27;;
77984;SDS011;67177;47.240;-1.546;2023-10-19T00:23:56;16.77;;;2.75;;
77984;SDS011;67177;47.240;-1.546;2023-10-19T00:26:23;12.77;;;2.28;;
77984;SDS011;67177;47.240;-1.546;2023-10-19T00:28:51;18.33;;;2.80;;
77984;SDS011;67177;47.240;-1.546;2023-10-19T00:31:25;15.63;;;2.90;;
77984;SDS011;67177;47.240;-1.546;2023-10-19T00:33:52;13.80;;;2.43;;
77984;SDS011;67177;47.240;-1.546;2023-10-19T00:36:19;18.15;;;2.60;;
77984;SDS011;67177;47.240;-1.546;2023-10-19T00:38:46;17.63;;;2.70;;
77984;SDS011;67177;47.240;-1.546;2023-10-19T00:41:18;15.63;;;2.58;;
77984;SDS011;67177;47.240;-1.546;2023-10-19T00:43:56;16.67;;;2.90;;
77984;SDS011;67177;47.240;-1.546;2023-10-19T00:46:28;16.77;;;3.10;;
77984;SDS011;67177;47.240;-1.546;2023-10-19T00:49:08;15.18;;;2.50;;
77984;SDS011;67177;47.240;-1.546;2023-10-19T00:51:44;15.23;;;2.88;;
77984;SDS011;67177;47.240;-1.546;2023-10-19T00:56:56;12.90;;;2.85;;
77984;SDS011;67177;47.240;-1.546;2023-10-19T00:59:28;21.27;;;3.10;;
77984;SDS011;67177;47.240;-1.546;2023-10-19T01:02:00;15.20;;;2.30;;
77984;SDS011;67177;47.240;-1.546;2023-10-19T01:04:45;17.02;;;2.95;;
77984;SDS011;67177;47.240;-1.546;2023-10-19T01:07:21;16.58;;;2.60;;
77984;SDS011;67177;47.240;-1.546;2023-10-19T01:10:00;14.05;;;2.42;;
77984;SDS011;67177;47.240;-1.546;2023-10-19T01:12:30;17.93;;;2.83;;
77984;SDS011;67177;47.240;-1.546;2023-10-19T01:15:09;13.50;;;2.67;;
77984;SDS011;67177;47.240;-1.546;2023-10-19T01:20:18;18.30;;;2.90;;
77984;SDS011;67177;47.240;-1.546;2023-10-19T01:22:49;9.80;;;2.33;;
77984;SDS011;67177;47.240;-1.546;2023-10-19T01:25:31;17.47;;;2.67;;
77984;SDS011;67177;47.240;-1.546;2023-10-19T01:28:01;15.18;;;2.53;;
77984;SDS011;67177;47.240;-1.546;2023-10-19T01:30:33;16.00;;;2.88;;
77984;SDS011;67177;47.240;-1.546;2023-10-19T01:32:59;19.10;;;2.63;;
77984;SDS011;67177;47.240;-1.546;2023-10-19T01:35:25;12.52;;;2.53;;
77984;SDS011;67177;47.240;-1.546;2023-10-19T01:37:52;13.60;;;2.47;;
77984;SDS011;67177;47.240;-1.546;2023-10-19T01:40:17;12.27;;;2.53;;
77984;SDS011;67177;47.240;-1.546;2023-10-19T01:42:46;11.43;;;2.20;;
77984;SDS011;67177;47.240;-1.546;2023-10-19T01:45:11;14.60;;;2.33;;
77984;SDS011;67177;47.240;-1.546;2023-10-19T01:47:37;14.63;;;2.50;;
77984;SDS011;67177;47.240;-1.546;2023-10-19T01:50:05;14.35;;;2.35;;
77984;SDS011;67177;47.240;-1.546;2023-10-19T01:52:32;18.20;;;2.60;;
77984;SDS011;67177;47.240;-1.546;2023-10-19T01:54:58;12.23;;;2.10;;
77984;SDS011;67177;47.240;-1.546;2023-10-19T01:57:32;15.98;;;2.42;;
77984;SDS011;67177;47.240;-1.546;2023-10-19T01:59:59;14.17;;;2.30;;
77984;SDS011;67177;47.240;-1.546;2023-10-19T02:02:34;17.90;;;2.75;;
77984;SDS011;67177;47.240;-1.546;2023-10-19T02:05:00;18.52;;;2.83;;
77984;SDS011;67177;47.240;-1.546;2023-10-19T02:07:29;15.05;;;2.75;;
77984;SDS011;67177;47.240;-1.546;2023-10-19T02:09:55;14.53;;;2.67;;
77984;SDS011;67177;47.240;-1.546;2023-10-19T02:12:20;10.90;;;1.57;;
77984;SDS011;67177;47.240;-1.546;2023-10-19T02:14:46;14.77;;;2.13;;
77984;SDS011;67177;47.240;-1.546;2023-10-19T02:17:12;8.48;;;1.77;;
77984;SDS011;67177;47.240;-1.546;2023-10-19T02:19:40;15.03;;;2.67;;
77984;SDS011;67177;47.240;-1.546;2023-10-19T02:22:05;12.13;;;2.13;;
77984;SDS011;67177;47.240;-1.546;2023-10-19T02:24:37;13.82;;;2.17;;
77984;SDS011;67177;47.240;-1.546;2023-10-19T02:27:04;10.00;;;1.90;;
77984;SDS011;67177;47.240;-1.546;2023-10-19T02:29:29;10.68;;;1.73;;
77984;SDS011;67177;47.240;-1.546;2023-10-19T02:31:56;11.43;;;2.15;;
77984;SDS011;67177;47.240;-1.546;2023-10-19T02:34:22;10.65;;;1.85;;
77984;SDS011;67177;47.240;-1.546;2023-10-19T02:36:48;13.30;;;2.03;;
77984;SDS011;67177;47.240;-1.546;2023-10-19T02:39:14;11.93;;;1.58;;
77984;SDS011;67177;47.240;-1.546;2023-10-19T02:41:43;13.10;;;1.77;;
77984;SDS011;67177;47.240;-1.546;2023-10-19T02:44:13;12.60;;;1.87;;
77984;SDS011;67177;47.240;-1.546;2023-10-19T02:46:43;12.43;;;2.00;;
77984;SDS011;67177;47.240;-1.546;2023-10-19T02:49:14;14.25;;;1.67;;
77984;SDS011;67177;47.240;-1.546;2023-10-19T02:51:43;11.32;;;1.77;;
77984;SDS011;67177;47.240;-1.546;2023-10-19T02:54:10;11.75;;;1.90;;
77984;SDS011;67177;47.240;-1.546;2023-10-19T02:56:50;10.63;;;1.40;;
77984;SDS011;67177;47.240;-1.546;2023-10-19T02:59:19;12.20;;;2.03;;
77984;SDS011;67177;47.240;-1.546;2023-10-19T03:01:49;10.05;;;1.60;;
77984;SDS011;67177;47.240;-1.546;2023-10-19T03:04:48;11.60;;;1.80;;
77984;SDS011;67177;47.240;-1.546;2023-10-19T03:07:14;11.67;;;2.10;;
77984;SDS011;67177;47.240;-1.546;2023-10-19T03:09:40;11.32;;;1.88;;
77984;SDS011;67177;47.240;-1.546;2023-10-19T03:12:14;10.60;;;1.80;;
77984;SDS011;67177;47.240;-1.546;2023-10-19T03:14:40;8.45;;;1.40;;
77984;SDS011;67177;47.240;-1.546;2023-10-19T03:17:08;7.90;;;1.33;;
77984;SDS011;67177;47.240;-1.546;2023-10-19T03:19:35;5.90;;;1.15;;
77984;SDS011;67177;47.240;-1.546;2023-10-19T03:22:01;12.52;;;1.45;;
77984;SDS011;67177;47.240;-1.546;2023-10-19T03:24:30;7.50;;;1.40;;
77984;SDS011;67177;47.240;-1.546;2023-10-19T03:27:05;7.05;;;1.10;;
77984;SDS011;67177;47.240;-1.546;2023-10-19T03:29:40;6.88;;;1.33;;
77984;SDS011;67177;47.240;-1.546;2023-10-19T03:32:10;7.78;;;1.17;;
77984;SDS011;67177;47.240;-1.546;2023-10-19T03:34:37;7.60;;;1.35;;
77984;SDS011;67177;47.240;-1.546;2023-10-19T03:37:03;8.03;;;1.20;;
77984;SDS011;67177;47.240;-1.546;2023-10-19T03:39:37;9.32;;;1.50;;
77984;SDS011;67177;47.240;-1.546;2023-10-19T03:42:03;6.50;;;1.13;;
77984;SDS011;67177;47.240;-1.546;2023-10-19T03:44:33;7.93;;;1.33;;
77984;SDS011;67177;47.240;-1.546;2023-10-19T03:47:08;7.63;;;0.90;;
77984;SDS011;67177;47.240;-1.546;2023-10-19T03:49:37;3.70;;;0.83;;
77984;SDS011;67177;47.240;-1.546;2023-10-19T03:52:06;7.53;;;1.10;;
77984;SDS011;67177;47.240;-1.546;2023-10-19T03:54:35;7.25;;;1.15;;
77984;SDS011;67177;47.240;-1.546;2023-10-19T03:57:06;6.55;;;1.38;;
77984;SDS011;67177;47.240;-1.546;2023-10-19T03:59:44;6.70;;;0.90;;
77984;SDS011;67177;47.240;-1.546;2023-10-19T04:02:10;7.00;;;1.10;;
77984;SDS011;67177;47.240;-1.546;2023-10-19T04:04:41;7.53;;;1.10;;
77984;SDS011;67177;47.240;-1.546;2023-10-19T04:07:13;6.10;;;1.25;;
77984;SDS011;67177;47.240;-1.546;2023-10-19T04:09:50;5.88;;;1.00;;
77984;SDS011;67177;47.240;-1.546;2023-10-19T04:12:33;4.40;;;0.70;;
77984;SDS011;67177;47.240;-1.546;2023-10-19T04:15:04;5.18;;;0.88;;
77984;SDS011;67177;47.240;-1.546;2023-10-19T04:17:44;3.53;;;0.70;;
77984;SDS011;67177;47.240;-1.546;2023-10-19T04:20:10;4.65;;;0.80;;
77984;SDS011;67177;47.240;-1.546;2023-10-19T04:22:43;5.15;;;0.80;;
77984;SDS011;67177;47.240;-1.546;2023-10-19T04:25:13;5.27;;;0.80;;
77984;SDS011;67177;47.240;-1.546;2023-10-19T04:27:41;3.63;;;0.85;;
77984;SDS011;67177;47.240;-1.546;2023-10-19T04:30:08;4.20;;;0.98;;
77984;SDS011;67177;47.240;-1.546;2023-10-19T04:32:41;3.63;;;0.70;;
77984;SDS011;67177;47.240;-1.546;2023-10-19T04:35:07;5.13;;;0.90;;
77984;SDS011;67177;47.240;-1.546;2023-10-19T04:37:34;4.37;;;0.80;;
77984;SDS011;67177;47.240;-1.546;2023-10-19T04:40:00;4.13;;;0.70;;
77984;SDS011;67177;47.240;-1.546;2023-10-19T04:42:26;6.53;;;0.80;;
77984;SDS011;67177;47.240;-1.546;2023-10-19T04:44:53;4.40;;;0.80;;
77984;SDS011;67177;47.240;-1.546;2023-10-19T04:47:20;4.40;;;0.80;;
77984;SDS011;67177;47.240;-1.546;2023-10-19T04:49:47;5.25;;;0.93;;
77984;SDS011;67177;47.240;-1.546;2023-10-19T04:52:12;4.00;;;0.88;;
77984;SDS011;67177;47.240;-1.546;2023-10-19T04:54:38;5.63;;;0.90;;
77984;SDS011;67177;47.240;-1.546;2023-10-19T04:57:04;4.20;;;0.80;;
77984;SDS011;67177;47.240;-1.546;2023-10-19T04:59:30;4.43;;;0.90;;
77984;SDS011;67177;47.240;-1.546;2023-10-19T05:01:58;5.57;;;0.82;;
77984;SDS011;67177;47.240;-1.546;2023-10-19T05:04:27;3.53;;;0.70;;
77984;SDS011;67177;47.240;-1.546;2023-10-19T05:06:53;4.45;;;0.65;;
77984;SDS011;67177;47.240;-1.546;2023-10-19T05:09:19;4.33;;;0.80;;
77984;SDS011;67177;47.240;-1.546;2023-10-19T05:11:44;5.82;;;0.90;;
77984;SDS011;67177;47.240;-1.546;2023-10-19T05:14:11;3.92;;;0.82;;
77984;SDS011;67177;47.240;-1.546;2023-10-19T05:16:40;3.90;;;0.90;;
77984;SDS011;67177;47.240;-1.546;2023-10-19T05:19:05;4.90;;;0.93;;
77984;SDS011;67177;47.240;-1.546;2023-10-19T05:21:31;6.38;;;1.00;;
77984;SDS011;67177;47.240;-1.546;2023-10-19T05:23:58;4.13;;;0.90;;
77984;SDS011;67177;47.240;-1.546;2023-10-19T05:26:27;5.70;;;1.00;;
77984;SDS011;67177;47.240;-1.546;2023-10-19T05:28:53;5.35;;;0.90;;
77984;SDS011;67177;47.240;-1.546;2023-10-19T05:31:19;4.73;;;1.23;;
77984;SDS011;67177;47.240;-1.546;2023-10-19T05:33:45;6.07;;;1.00;;
77984;SDS011;67177;47.240;-1.546;2023-10-19T05:36:13;6.20;;;1.10;;
77984;SDS011;67177;47.240;-1.546;2023-10-19T05:38:39;6.55;;;1.30;;
77984;SDS011;67177;47.240;-1.546;2023-10-19T05:41:05;5.83;;;0.90;;
77984;SDS011;67177;47.240;-1.546;2023-10-19T05:43:32;5.10;;;1.08;;
77984;SDS011;67177;47.240;-1.546;2023-10-19T05:45:59;7.07;;;1.52;;
77984;SDS011;67177;47.240;-1.546;2023-10-19T05:48:25;6.43;;;1.25;;
77984;SDS011;67177;47.240;-1.546;2023-10-19T05:50:51;7.17;;;1.27;;
77984;SDS011;67177;47.240;-1.546;2023-10-19T05:53:16;6.38;;;1.58;;
77984;SDS011;67177;47.240;-1.546;2023-10-19T05:55:46;7.97;;;1.30;;
77984;SDS011;67177;47.240;-1.546;2023-10-19T05:58:11;5.47;;;1.30;;
77984;SDS011;67177;47.240;-1.546;2023-10-19T06:00:37;5.63;;;1.00;;
77984;SDS011;67177;47.240;-1.546;2023-10-19T06:03:03;8.23;;;1.30;;
77984;SDS011;67177;47.240;-1.546;2023-10-19T06:05:29;8.13;;;1.17;;
77984;SDS011;67177;47.240;-1.546;2023-10-19T06:07:56;5.70;;;1.00;;
77984;SDS011;67177;47.240;-1.546;2023-10-19T06:10:21;9.25;;;1.42;;
77984;SDS011;67177;47.240;-1.546;2023-10-19T06:12:48;5.82;;;1.25;;
77984;SDS011;67177;47.240;-1.546;2023-10-19T06:15:15;9.05;;;1.67;;
77984;SDS011;67177;47.240;-1.546;2023-10-19T06:17:42;13.05;;;1.50;;
77984;SDS011;67177;47.240;-1.546;2023-10-19T06:20:09;9.60;;;1.85;;
77984;SDS011;67177;47.240;-1.546;2023-10-19T06:22:54;8.65;;;1.65;;
77984;SDS011;67177;47.240;-1.546;2023-10-19T06:25:29;9.50;;;1.77;;
77984;SDS011;67177;47.240;-1.546;2023-10-19T06:27:55;11.50;;;1.55;;
77984;SDS011;67177;47.240;-1.546;2023-10-19T06:30:22;9.60;;;1.60;;
77984;SDS011;67177;47.240;-1.546;2023-10-19T06:32:58;10.77;;;2.03;;
77984;SDS011;67177;47.240;-1.546;2023-10-19T06:35:25;9.13;;;1.40;;
77984;SDS011;67177;47.240;-1.546;2023-10-19T06:37:52;11.93;;;1.77;;
77984;SDS011;67177;47.240;-1.546;2023-10-19T06:40:21;7.95;;;1.48;;
77984;SDS011;67177;47.240;-1.546;2023-10-19T06:42:48;11.02;;;2.10;;
77984;SDS011;67177;47.240;-1.546;2023-10-19T06:45:14;9.90;;;1.75;;
77984;SDS011;67177;47.240;-1.546;2023-10-19T06:47:45;9.15;;;1.80;;
77984;SDS011;67177;47.240;-1.546;2023-10-19T06:50:16;7.10;;;1.47;;
77984;SDS011;67177;47.240;-1.546;2023-10-19T06:52:46;7.75;;;1.30;;
77984;SDS011;67177;47.240;-1.546;2023-10-19T06:55:16;10.27;;;1.90;;
77984;SDS011;67177;47.240;-1.546;2023-10-19T06:57:44;11.35;;;2.08;;
77984;SDS011;67177;47.240;-1.546;2023-10-19T07:00:13;10.63;;;1.90;;
77984;SDS011;67177;47.240;-1.546;2023-10-19T07:02:54;11.83;;;1.90;;
77984;SDS011;67177;47.240;-1.546;2023-10-19T07:05:21;10.60;;;2.22;;
77984;SDS011;67177;47.240;-1.546;2023-10-19T07:07:49;9.05;;;1.70;;
77984;SDS011;67177;47.240;-1.546;2023-10-19T07:10:17;11.80;;;1.92;;
77984;SDS011;67177;47.240;-1.546;2023-10-19T07:12:44;11.93;;;1.95;;
77984;SDS011;67177;47.240;-1.546;2023-10-19T07:15:11;10.90;;;1.83;;
77984;SDS011;67177;47.240;-1.546;2023-10-19T07:17:40;12.48;;;2.08;;
77984;SDS011;67177;47.240;-1.546;2023-10-19T07:20:06;10.57;;;2.10;;
77984;SDS011;67177;47.240;-1.546;2023-10-19T07:22:34;11.35;;;1.85;;
77984;SDS011;67177;47.240;-1.546;2023-10-19T07:25:07;9.88;;;1.80;;
77984;SDS011;67177;47.240;-1.546;2023-10-19T07:27:34;11.47;;;2.57;;
77984;SDS011;67177;47.240;-1.546;2023-10-19T07:30:00;11.40;;;1.90;;
77984;SDS011;67177;47.240;-1.546;2023-10-19T07:32:26;14.38;;;1.90;;
77984;SDS011;67177;47.240;-1.546;2023-10-19T07:34:53;15.00;;;2.47;;
77984;SDS011;67177;47.240;-1.546;2023-10-19T07:37:20;13.90;;;2.20;;
77984;SDS011;67177;47.240;-1.546;2023-10-19T07:39:47;12.52;;;2.40;;
77984;SDS011;67177;47.240;-1.546;2023-10-19T07:42:14;13.07;;;2.30;;
77984;SDS011;67177;47.240;-1.546;2023-10-19T07:44:40;16.42;;;2.38;;
77984;SDS011;67177;47.240;-1.546;2023-10-19T07:47:06;11.52;;;2.22;;
77984;SDS011;67177;47.240;-1.546;2023-10-19T07:49:34;18.13;;;2.77;;
77984;SDS011;67177;47.240;-1.546;2023-10-19T07:52:03;12.93;;;2.20;;
77984;SDS011;67177;47.240;-1.546;2023-10-19T07:54:35;14.38;;;2.55;;
77984;SDS011;67177;47.240;-1.546;2023-10-19T07:57:03;19.73;;;2.90;;
77984;SDS011;67177;47.240;-1.546;2023-10-19T07:59:32;15.20;;;2.15;;
77984;SDS011;67177;47.240;-1.546;2023-10-19T08:01:59;12.77;;;2.20;;
77984;SDS011;67177;47.240;-1.546;2023-10-19T08:04:28;18.65;;;2.13;;
77984;SDS011;67177;47.240;-1.546;2023-10-19T08:06:54;9.27;;;1.80;;
77984;SDS011;67177;47.240;-1.546;2023-10-19T08:09:21;11.68;;;1.75;;
77984;SDS011;67177;47.240;-1.546;2023-10-19T08:11:56;13.40;;;2.07;;
77984;SDS011;67177;47.240;-1.546;2023-10-19T08:14:24;9.95;;;1.98;;
77984;SDS011;67177;47.240;-1.546;2023-10-19T08:16:51;11.13;;;2.45;;
77984;SDS011;67177;47.240;-1.546;2023-10-19T08:19:18;14.93;;;2.00;;
77984;SDS011;67177;47.240;-1.546;2023-10-19T08:21:44;12.60;;;1.85;;
77984;SDS011;67177;47.240;-1.546;2023-10-19T08:24:10;9.57;;;2.07;;
77984;SDS011;67177;47.240;-1.546;2023-10-19T08:26:43;8.93;;;1.80;;
77984;SDS011;67177;47.240;-1.546;2023-10-19T08:29:11;9.75;;;1.70;;
77984;SDS011;67177;47.240;-1.546;2023-10-19T08:31:42;8.68;;;1.73;;
77984;SDS011;67177;47.240;-1.546;2023-10-19T08:34:11;8.80;;;1.70;;
77984;SDS011;67177;47.240;-1.546;2023-10-19T08:36:38;7.90;;;1.60;;
77984;SDS011;67177;47.240;-1.546;2023-10-19T08:39:07;7.15;;;1.35;;
77984;SDS011;67177;47.240;-1.546;2023-10-19T08:41:37;10.00;;;1.83;;
77984;SDS011;67177;47.240;-1.546;2023-10-19T08:44:05;8.27;;;1.40;;
77984;SDS011;67177;47.240;-1.546;2023-10-19T08:46:36;5.57;;;1.23;;
77984;SDS011;67177;47.240;-1.546;2023-10-19T08:49:05;7.50;;;1.63;;
77984;SDS011;67177;47.240;-1.546;2023-10-19T08:51:35;7.75;;;1.40;;
77984;SDS011;67177;47.240;-1.546;2023-10-19T08:54:04;6.47;;;1.33;;
77984;SDS011;67177;47.240;-1.546;2023-10-19T08:56:31;9.38;;;1.70;;
77984;SDS011;67177;47.240;-1.546;2023-10-19T08:58:58;11.15;;;1.85;;
77984;SDS011;67177;47.240;-1.546;2023-10-19T09:01:26;8.87;;;1.80;;
77984;SDS011;67177;47.240;-1.546;2023-10-19T09:03:56;9.45;;;1.77;;
77984;SDS011;67177;47.240;-1.546;2023-10-19T09:06:23;8.25;;;2.00;;
77984;SDS011;67177;47.240;-1.546;2023-10-19T09:08:48;9.77;;;2.10;;
77984;SDS011;67177;47.240;-1.546;2023-10-19T09:11:14;7.63;;;1.50;;
77984;SDS011;67177;47.240;-1.546;2023-10-19T09:16:12;14.30;;;2.23;;
77984;SDS011;67177;47.240;-1.546;2023-10-19T09:18:45;12.50;;;2.30;;
77984;SDS011;67177;47.240;-1.546;2023-10-19T09:21:16;11.15;;;2.30;;
77984;SDS011;67177;47.240;-1.546;2023-10-19T09:23:55;11.10;;;2.25;;
77984;SDS011;67177;47.240;-1.546;2023-10-19T09:26:22;11.88;;;1.98;;
77984;SDS011;67177;47.240;-1.546;2023-10-19T09:28:49;12.40;;;2.20;;
77984;SDS011;67177;47.240;-1.546;2023-10-19T09:31:17;11.07;;;2.10;;
77984;SDS011;67177;47.240;-1.546;2023-10-19T09:33:44;16.00;;;2.75;;
77984;SDS011;67177;47.240;-1.546;2023-10-19T09:36:11;10.93;;;2.10;;
77984;SDS011;67177;47.240;-1.546;2023-10-19T09:38:39;13.40;;;2.45;;
77984;SDS011;67177;47.240;-1.546;2023-10-19T09:41:08;13.40;;;2.60;;
77984;SDS011;67177;47.240;-1.546;2023-10-19T09:43:41;15.95;;;3.50;;
77984;SDS011;67177;47.240;-1.546;2023-10-19T09:46:10;10.15;;;2.30;;
77984;SDS011;67177;47.240;-1.546;2023-10-19T09:48:46;11.10;;;1.95;;
77984;SDS011;67177;47.240;-1.546;2023-10-19T09:51:13;13.57;;;2.17;;
77984;SDS011;67177;47.240;-1.546;2023-10-19T09:53:41;17.20;;;2.97;;
77984;SDS011;67177;47.240;-1.546;2023-10-19T09:56:17;16.13;;;3.20;;
77984;SDS011;67177;47.240;-1.546;2023-10-19T09:58:48;18.35;;;2.58;;
77984;SDS011;67177;47.240;-1.546;2023-10-19T10:01:16;13.27;;;2.38;;
77984;SDS011;67177;47.240;-1.546;2023-10-19T10:06:16;19.33;;;2.93;;
77984;SDS011;67177;47.240;-1.546;2023-10-19T10:08:51;9.27;;;2.28;;
77984;SDS011;67177;47.240;-1.546;2023-10-19T10:11:23;14.15;;;2.50;;
77984;SDS011;67177;47.240;-1.546;2023-10-19T10:13:49;13.93;;;2.65;;
77984;SDS011;67177;47.240;-1.546;2023-10-19T10:16:19;12.25;;;2.20;;
77984;SDS011;67177;47.240;-1.546;2023-10-19T10:18:49;8.77;;;2.10;;
77984;SDS011;67177;47.240;-1.546;2023-10-19T10:26:18;12.07;;;2.45;;
77984;SDS011;67177;47.240;-1.546;2023-10-19T10:29:09;16.88;;;2.40;;
77984;SDS011;67177;47.240;-1.546;2023-10-19T10:31:45;10.90;;;2.40;;
77984;SDS011;67177;47.240;-1.546;2023-10-19T10:34:41;13.68;;;1.90;;
77984;SDS011;67177;47.240;-1.546;2023-10-19T10:37:05;10.82;;;2.00;;
77984;SDS011;67177;47.240;-1.546;2023-10-19T10:39:36;14.23;;;2.35;;
77984;SDS011;67177;47.240;-1.546;2023-10-19T10:42:05;18.88;;;2.63;;
77984;SDS011;67177;47.240;-1.546;2023-10-19T10:47:11;10.82;;;1.90;;
77984;SDS011;67177;47.240;-1.546;2023-10-19T10:49:51;10.68;;;2.03;;
77984;SDS011;67177;47.240;-1.546;2023-10-19T10:52:33;13.35;;;2.05;;
77984;SDS011;67177;47.240;-1.546;2023-10-19T10:55:08;9.35;;;2.00;;
77984;SDS011;67177;47.240;-1.546;2023-10-19T10:57:42;11.53;;;1.93;;
77984;SDS011;67177;47.240;-1.546;2023-10-19T11:00:10;12.07;;;2.13;;
77984;SDS011;67177;47.240;-1.546;2023-10-19T11:02:47;14.93;;;2.30;;
77984;SDS011;67177;47.240;-1.546;2023-10-19T11:05:26;10.80;;;1.92;;
77984;SDS011;67177;47.240;-1.546;2023-10-19T11:10:35;12.77;;;1.90;;
77984;SDS011;67177;47.240;-1.546;2023-10-19T11:13:05;9.55;;;1.77;;
77984;SDS011;67177;47.240;-1.546;2023-10-19T11:15:32;9.65;;;1.83;;
77984;SDS011;67177;47.240;-1.546;2023-10-19T11:17:59;10.07;;;1.60;;
77984;SDS011;67177;47.240;-1.546;2023-10-19T11:20:26;9.27;;;2.00;;
77984;SDS011;67177;47.240;-1.546;2023-10-19T11:22:52;7.63;;;1.53;;
77984;SDS011;67177;47.240;-1.546;2023-10-19T11:25:24;9.98;;;1.70;;
77984;SDS011;67177;47.240;-1.546;2023-10-19T11:27:54;10.95;;;2.03;;
77984;SDS011;67177;47.240;-1.546;2023-10-19T11:32:54;11.37;;;1.87;;
77984;SDS011;67177;47.240;-1.546;2023-10-19T11:35:25;8.75;;;1.83;;
77984;SDS011;67177;47.240;-1.546;2023-10-19T11:37:53;12.48;;;1.83;;
77984;SDS011;67177;47.240;-1.546;2023-10-19T11:40:20;12.00;;;1.63;;
77984;SDS011;67177;47.240;-1.546;2023-10-19T11:42:47;12.15;;;1.83;;
77984;SDS011;67177;47.240;-1.546;2023-10-19T11:45:13;12.23;;;2.10;;
77984;SDS011;67177;47.240;-1.546;2023-10-19T11:47:41;8.20;;;1.00;;
77984;SDS011;67177;47.240;-1.546;2023-10-19T11:50:07;9.07;;;1.45;;
77984;SDS011;67177;47.240;-1.546;2023-10-19T11:52:37;10.30;;;1.33;;
77984;SDS011;67177;47.240;-1.546;2023-10-19T11:55:03;4.53;;;0.70;;
77984;SDS011;67177;47.240;-1.546;2023-10-19T11:57:30;8.68;;;1.20;;
77984;SDS011;67177;47.240;-1.546;2023-10-19T11:59:57;6.07;;;0.98;;
77984;SDS011;67177;47.240;-1.546;2023-10-19T12:02:24;9.15;;;1.42;;
77984;SDS011;67177;47.240;-1.546;2023-10-19T12:04:51;8.38;;;1.00;;
77984;SDS011;67177;47.240;-1.546;2023-10-19T12:07:17;8.40;;;1.30;;
77984;SDS011;67177;47.240;-1.546;2023-10-19T12:09:43;6.72;;;1.27;;
77984;SDS011;67177;47.240;-1.546;2023-10-19T12:12:10;6.32;;;1.02;;
77984;SDS011;67177;47.240;-1.546;2023-10-19T12:14:36;6.20;;;0.80;;
77984;SDS011;67177;47.240;-1.546;2023-10-19T12:17:02;8.23;;;1.23;;
77984;SDS011;67177;47.240;-1.546;2023-10-19T12:19:31;6.85;;;1.17;;
77984;SDS011;67177;47.240;-1.546;2023-10-19T12:21:57;6.72;;;1.08;;
77984;SDS011;67177;47.240;-1.546;2023-10-19T12:24:23;10.57;;;1.30;;
77984;SDS011;67177;47.240;-1.546;2023-10-19T12:26:49;7.13;;;1.30;;
77984;SDS011;67177;47.240;-1.546;2023-10-19T12:29:16;11.35;;;1.63;;
77984;SDS011;67177;47.240;-1.546;2023-10-19T12:31:45;9.70;;;1.55;;
77984;SDS011;67177;47.240;-1.546;2023-10-19T12:34:11;9.65;;;1.60;;
77984;SDS011;67177;47.240;-1.546;2023-10-19T12:36:37;10.48;;;1.42;;
77984;SDS011;67177;47.240;-1.546;2023-10-19T12:39:03;10.50;;;1.50;;
77984;SDS011;67177;47.240;-1.546;2023-10-19T12:41:33;11.35;;;1.80;;
77984;SDS011;67177;47.240;-1.546;2023-10-19T12:43:59;11.30;;;1.60;;
77984;SDS011;67177;47.240;-1.546;2023-10-19T12:46:33;11.13;;;1.92;;
77984;SDS011;67177;47.240;-1.546;2023-10-19T12:49:01;11.13;;;1.53;;
77984;SDS011;67177;47.240;-1.546;2023-10-19T12:51:33;9.55;;;1.85;;
77984;SDS011;67177;47.240;-1.546;2023-10-19T12:53:59;10.93;;;1.75;;
77984;SDS011;67177;47.240;-1.546;2023-10-19T12:56:28;9.65;;;1.60;;
77984;SDS011;67177;47.240;-1.546;2023-10-19T12:58:54;18.90;;;3.30;;
77984;SDS011;67177;47.240;-1.546;2023-10-19T13:01:20;15.65;;;2.60;;
77984;SDS011;67177;47.240;-1.546;2023-10-19T13:03:46;8.77;;;2.08;;
77984;SDS011;67177;47.240;-1.546;2023-10-19T13:06:14;11.48;;;1.77;;
77984;SDS011;67177;47.240;-1.546;2023-10-19T13:08:40;10.47;;;1.93;;
77984;SDS011;67177;47.240;-1.546;2023-10-19T13:11:07;7.50;;;1.42;;
77984;SDS011;67177;47.240;-1.546;2023-10-19T13:13:33;11.20;;;1.73;;
77984;SDS011;67177;47.240;-1.546;2023-10-19T13:16:01;10.90;;;1.95;;
77984;SDS011;67177;47.240;-1.546;2023-10-19T13:18:30;11.80;;;2.20;;
77984;SDS011;67177;47.240;-1.546;2023-10-19T13:20:59;10.63;;;1.70;;
77984;SDS011;67177;47.240;-1.546;2023-10-19T13:23:45;8.93;;;2.00;;
77984;SDS011;67177;47.240;-1.546;2023-10-19T13:26:11;12.82;;;2.40;;
77984;SDS011;67177;47.240;-1.546;2023-10-19T13:28:40;10.97;;;1.90;;
77984;SDS011;67177;47.240;-1.546;2023-10-19T13:31:05;10.95;;;1.80;;
77984;SDS011;67177;47.240;-1.546;2023-10-19T13:33:34;11.57;;;2.03;;
77984;SDS011;67177;47.240;-1.546;2023-10-19T13:36:00;15.57;;;2.03;;
77984;SDS011;67177;47.240;-1.546;2023-10-19T13:38:27;11.20;;;1.83;;
77984;SDS011;67177;47.240;-1.546;2023-10-19T13:40:53;10.73;;;1.90;;
77984;SDS011;67177;47.240;-1.546;2023-10-19T13:43:19;9.23;;;1.63;;
77984;SDS011;67177;47.240;-1.546;2023-10-19T13:45:46;9.27;;;1.63;;
77984;SDS011;67177;47.240;-1.546;2023-10-19T13:48:13;10.63;;;1.75;;
77984;SDS011;67177;47.240;-1.546;2023-10-19T13:50:44;9.30;;;1.55;;
77984;SDS011;67177;47.240;-1.546;2023-10-19T13:53:13;5.32;;;1.17;;
77984;SDS011;67177;47.240;-1.546;2023-10-19T13:55:42;7.20;;;1.30;;
77984;SDS011;67177;47.240;-1.546;2023-10-19T13:58:08;5.20;;;1.10;;
77984;SDS011;67177;47.240;-1.546;2023-10-19T14:00:35;7.93;;;1.48;;
77984;SDS011;67177;47.240;-1.546;2023-10-19T14:03:06;7.93;;;1.50;;
77984;SDS011;67177;47.240;-1.546;2023-10-19T14:05:36;13.18;;;1.70;;
77984;SDS011;67177;47.240;-1.546;2023-10-19T14:08:03;11.65;;;2.10;;
77984;SDS011;67177;47.240;-1.546;2023-10-19T14:10:29;10.37;;;1.20;;
77984;SDS011;67177;47.240;-1.546;2023-10-19T14:12:58;9.98;;;1.75;;
77984;SDS011;67177;47.240;-1.546;2023-10-19T14:15:24;7.47;;;1.58;;
77984;SDS011;67177;47.240;-1.546;2023-10-19T14:17:50;7.87;;;1.47;;
77984;SDS011;67177;47.240;-1.546;2023-10-19T14:20:17;8.10;;;1.30;;
77984;SDS011;67177;47.240;-1.546;2023-10-19T14:22:43;8.30;;;1.70;;
77984;SDS011;67177;47.240;-1.546;2023-10-19T14:25:16;10.85;;;1.85;;
77984;SDS011;67177;47.240;-1.546;2023-10-19T14:27:45;10.13;;;1.92;;
77984;SDS011;67177;47.240;-1.546;2023-10-19T14:30:13;9.97;;;2.10;;
77984;SDS011;67177;47.240;-1.546;2023-10-19T14:32:40;9.98;;;1.80;;
77984;SDS011;67177;47.240;-1.546;2023-10-19T14:35:09;10.40;;;2.30;;
77984;SDS011;67177;47.240;-1.546;2023-10-19T14:37:40;7.85;;;1.45;;
77984;SDS011;67177;47.240;-1.546;2023-10-19T14:40:10;9.25;;;1.73;;
77984;SDS011;67177;47.240;-1.546;2023-10-19T14:42:40;11.93;;;2.07;;
77984;SDS011;67177;47.240;-1.546;2023-10-19T14:45:10;10.07;;;1.98;;
77984;SDS011;67177;47.240;-1.546;2023-10-19T14:47:39;10.52;;;1.90;;
77984;SDS011;67177;47.240;-1.546;2023-10-19T14:50:15;12.00;;;2.25;;
77984;SDS011;67177;47.240;-1.546;2023-10-19T14:52:43;10.40;;;2.08;;
77984;SDS011;67177;47.240;-1.546;2023-10-19T14:55:11;11.33;;;2.00;;
77984;SDS011;67177;47.240;-1.546;2023-10-19T14:57:37;8.90;;;1.73;;
77984;SDS011;67177;47.240;-1.546;2023-10-19T15:00:07;8.23;;;2.08;;
77984;SDS011;67177;47.240;-1.546;2023-10-19T15:02:40;9.55;;;2.00;;